sensor_id;sensor_type;location;lat;lon;timestamp;P1;durP1;ratioP1;P2;durP2;ratioP2
63699;SDS011;49845;47.130;142.766;2023-04-01T00:01:52;9.60;;;4.82;;
63699;SDS011;49845;47.130;142.766;2023-04-01T00:04:23;13.77;;;6.68;;
63699;SDS011;49845;47.130;142.766;2023-04-01T00:06:58;10.35;;;6.00;;
63699;SDS011;49845;47.130;142.766;2023-04-01T00:09:29;13.52;;;5.95;;
63699;SDS011;49845;47.130;142.766;2023-04-01T00:12:00;11.63;;;5.90;;
63699;SDS011;49845;47.130;142.766;2023-04-01T00:14:30;12.00;;;5.97;;
63699;SDS011;49845;47.130;142.766;2023-04-01T00:17:02;12.52;;;6.00;;
63699;SDS011;49845;47.130;142.766;2023-04-01T00:19:33;9.68;;;5.53;;
63699;SDS011;49845;47.130;142.766;2023-04-01T00:22:05;16.45;;;6.10;;
63699;SDS011;49845;47.130;142.766;2023-04-01T00:24:39;13.02;;;5.78;;
63699;SDS011;49845;47.130;142.766;2023-04-01T00:27:09;13.43;;;6.28;;
63699;SDS011;49845;47.130;142.766;2023-04-01T00:29:41;15.32;;;5.88;;
63699;SDS011;49845;47.130;142.766;2023-04-01T00:32:12;10.73;;;6.10;;
63699;SDS011;49845;47.130;142.766;2023-04-01T00:34:43;13.45;;;7.00;;
63699;SDS011;49845;47.130;142.766;2023-04-01T00:37:15;12.95;;;6.30;;
63699;SDS011;49845;47.130;142.766;2023-04-01T00:39:46;11.80;;;6.35;;
63699;SDS011;49845;47.130;142.766;2023-04-01T00:42:20;14.07;;;5.43;;
63699;SDS011;49845;47.130;142.766;2023-04-01T00:44:51;13.20;;;5.55;;
63699;SDS011;49845;47.130;142.766;2023-04-01T00:47:23;17.17;;;6.53;;
63699;SDS011;49845;47.130;142.766;2023-04-01T00:49:56;14.85;;;5.70;;
63699;SDS011;49845;47.130;142.766;2023-04-01T00:52:28;12.68;;;5.70;;
63699;SDS011;49845;47.130;142.766;2023-04-01T00:54:58;19.38;;;6.53;;
63699;SDS011;49845;47.130;142.766;2023-04-01T00:57:34;13.00;;;5.68;;
63699;SDS011;49845;47.130;142.766;2023-04-01T01:00:09;9.25;;;4.47;;
63699;SDS011;49845;47.130;142.766;2023-04-01T01:02:45;14.02;;;5.90;;
63699;SDS011;49845;47.130;142.766;2023-04-01T01:05:18;15.48;;;6.65;;
63699;SDS011;49845;47.130;142.766;2023-04-01T01:07:57;14.18;;;6.00;;
63699;SDS011;49845;47.130;142.766;2023-04-01T01:10:34;11.10;;;6.30;;
63699;SDS011;49845;47.130;142.766;2023-04-01T01:13:10;13.75;;;6.65;;
63699;SDS011;49845;47.130;142.766;2023-04-01T01:15:46;17.17;;;6.82;;
63699;SDS011;49845;47.130;142.766;2023-04-01T01:18:23;15.48;;;6.72;;
63699;SDS011;49845;47.130;142.766;2023-04-01T01:21:12;14.80;;;6.45;;
63699;SDS011;49845;47.130;142.766;2023-04-01T01:27:13;12.45;;;6.35;;
63699;SDS011;49845;47.130;142.766;2023-04-01T01:29:55;14.40;;;6.57;;
63699;SDS011;49845;47.130;142.766;2023-04-01T01:32:41;15.27;;;6.78;;
63699;SDS011;49845;47.130;142.766;2023-04-01T01:35:25;11.20;;;6.13;;
63699;SDS011;49845;47.130;142.766;2023-04-01T01:37:58;14.25;;;6.63;;
63699;SDS011;49845;47.130;142.766;2023-04-01T01:40:32;11.70;;;5.50;;
63699;SDS011;49845;47.130;142.766;2023-04-01T01:43:05;10.38;;;4.75;;
63699;SDS011;49845;47.130;142.766;2023-04-01T01:45:39;14.90;;;6.95;;
63699;SDS011;49845;47.130;142.766;2023-04-01T01:48:13;11.70;;;6.57;;
63699;SDS011;49845;47.130;142.766;2023-04-01T01:50:47;16.05;;;6.40;;
63699;SDS011;49845;47.130;142.766;2023-04-01T01:53:19;13.90;;;6.43;;
63699;SDS011;49845;47.130;142.766;2023-04-01T01:55:50;12.73;;;6.25;;
63699;SDS011;49845;47.130;142.766;2023-04-01T01:58:22;11.65;;;5.63;;
63699;SDS011;49845;47.130;142.766;2023-04-01T02:00:58;9.50;;;5.47;;
63699;SDS011;49845;47.130;142.766;2023-04-01T02:03:33;11.05;;;5.57;;
63699;SDS011;49845;47.130;142.766;2023-04-01T02:06:07;15.27;;;5.75;;
63699;SDS011;49845;47.130;142.766;2023-04-01T02:08:41;13.68;;;6.30;;
63699;SDS011;49845;47.130;142.766;2023-04-01T02:11:16;9.85;;;5.68;;
63699;SDS011;49845;47.130;142.766;2023-04-01T02:13:49;13.32;;;6.15;;
63699;SDS011;49845;47.130;142.766;2023-04-01T02:16:22;10.27;;;5.93;;
63699;SDS011;49845;47.130;142.766;2023-04-01T02:18:57;10.07;;;4.88;;
63699;SDS011;49845;47.130;142.766;2023-04-01T02:21:31;13.30;;;6.00;;
63699;SDS011;49845;47.130;142.766;2023-04-01T02:24:04;12.82;;;5.97;;
63699;SDS011;49845;47.130;142.766;2023-04-01T02:26:37;10.45;;;4.90;;
63699;SDS011;49845;47.130;142.766;2023-04-01T02:29:08;10.25;;;4.95;;
63699;SDS011;49845;47.130;142.766;2023-04-01T02:31:41;10.40;;;5.55;;
63699;SDS011;49845;47.130;142.766;2023-04-01T02:34:12;13.02;;;5.25;;
63699;SDS011;49845;47.130;142.766;2023-04-01T02:36:45;8.32;;;4.82;;
63699;SDS011;49845;47.130;142.766;2023-04-01T02:39:17;13.52;;;6.05;;
63699;SDS011;49845;47.130;142.766;2023-04-01T02:41:48;11.55;;;5.40;;
63699;SDS011;49845;47.130;142.766;2023-04-01T02:44:19;12.95;;;6.10;;
63699;SDS011;49845;47.130;142.766;2023-04-01T02:46:50;14.57;;;5.35;;
63699;SDS011;49845;47.130;142.766;2023-04-01T02:49:20;13.90;;;4.70;;
63699;SDS011;49845;47.130;142.766;2023-04-01T02:51:53;9.82;;;4.55;;
63699;SDS011;49845;47.130;142.766;2023-04-01T02:54:24;11.63;;;5.88;;
63699;SDS011;49845;47.130;142.766;2023-04-01T02:56:55;13.98;;;6.43;;
63699;SDS011;49845;47.130;142.766;2023-04-01T02:59:25;11.30;;;5.05;;
63699;SDS011;49845;47.130;142.766;2023-04-01T03:01:56;10.85;;;5.63;;
63699;SDS011;49845;47.130;142.766;2023-04-01T03:04:26;10.60;;;5.95;;
63699;SDS011;49845;47.130;142.766;2023-04-01T03:06:58;17.95;;;6.75;;
63699;SDS011;49845;47.130;142.766;2023-04-01T03:09:29;14.15;;;6.43;;
63699;SDS011;49845;47.130;142.766;2023-04-01T03:12:00;26.65;;;12.52;;
63699;SDS011;49845;47.130;142.766;2023-04-01T03:14:30;21.08;;;8.05;;
63699;SDS011;49845;47.130;142.766;2023-04-01T03:17:01;21.77;;;7.28;;
63699;SDS011;49845;47.130;142.766;2023-04-01T03:19:31;15.80;;;6.47;;
63699;SDS011;49845;47.130;142.766;2023-04-01T03:22:04;26.02;;;6.70;;
63699;SDS011;49845;47.130;142.766;2023-04-01T03:24:34;30.55;;;8.70;;
63699;SDS011;49845;47.130;142.766;2023-04-01T03:27:05;31.38;;;9.73;;
63699;SDS011;49845;47.130;142.766;2023-04-01T03:29:36;27.85;;;8.60;;
63699;SDS011;49845;47.130;142.766;2023-04-01T03:32:06;27.15;;;9.25;;
63699;SDS011;49845;47.130;142.766;2023-04-01T03:34:37;40.92;;;10.88;;
63699;SDS011;49845;47.130;142.766;2023-04-01T03:37:09;39.83;;;10.57;;
63699;SDS011;49845;47.130;142.766;2023-04-01T03:39:43;35.53;;;10.10;;
63699;SDS011;49845;47.130;142.766;2023-04-01T03:42:13;30.65;;;10.00;;
63699;SDS011;49845;47.130;142.766;2023-04-01T03:44:44;40.65;;;12.52;;
63699;SDS011;49845;47.130;142.766;2023-04-01T03:47:14;39.10;;;12.00;;
63699;SDS011;49845;47.130;142.766;2023-04-01T03:49:45;32.70;;;10.38;;
63699;SDS011;49845;47.130;142.766;2023-04-01T03:52:17;36.45;;;11.65;;
63699;SDS011;49845;47.130;142.766;2023-04-01T03:54:48;52.15;;;13.57;;
63699;SDS011;49845;47.130;142.766;2023-04-01T03:57:18;36.50;;;11.52;;
63699;SDS011;49845;47.130;142.766;2023-04-01T03:59:49;35.63;;;10.23;;
63699;SDS011;49845;47.130;142.766;2023-04-01T04:02:20;33.90;;;10.18;;
63699;SDS011;49845;47.130;142.766;2023-04-01T04:04:50;35.85;;;11.30;;
63699;SDS011;49845;47.130;142.766;2023-04-01T04:07:23;35.50;;;11.43;;
63699;SDS011;49845;47.130;142.766;2023-04-01T04:09:54;23.45;;;7.95;;
63699;SDS011;49845;47.130;142.766;2023-04-01T04:12:24;31.92;;;9.35;;
63699;SDS011;49845;47.130;142.766;2023-04-01T04:14:55;36.65;;;10.38;;
63699;SDS011;49845;47.130;142.766;2023-04-01T04:17:28;46.45;;;11.23;;
63699;SDS011;49845;47.130;142.766;2023-04-01T04:19:59;40.30;;;12.60;;
63699;SDS011;49845;47.130;142.766;2023-04-01T04:22:31;40.58;;;10.88;;
63699;SDS011;49845;47.130;142.766;2023-04-01T04:25:02;22.95;;;9.55;;
63699;SDS011;49845;47.130;142.766;2023-04-01T04:27:33;38.25;;;12.35;;
63699;SDS011;49845;47.130;142.766;2023-04-01T04:30:05;42.03;;;11.60;;
63699;SDS011;49845;47.130;142.766;2023-04-01T04:32:38;45.63;;;12.10;;
63699;SDS011;49845;47.130;142.766;2023-04-01T04:35:09;33.35;;;12.68;;
63699;SDS011;49845;47.130;142.766;2023-04-01T04:37:41;52.28;;;17.23;;
63699;SDS011;49845;47.130;142.766;2023-04-01T04:40:12;54.70;;;19.58;;
63699;SDS011;49845;47.130;142.766;2023-04-01T04:42:42;43.42;;;14.75;;
63699;SDS011;49845;47.130;142.766;2023-04-01T04:45:13;40.53;;;11.93;;
63699;SDS011;49845;47.130;142.766;2023-04-01T04:47:44;53.83;;;16.92;;
63699;SDS011;49845;47.130;142.766;2023-04-01T04:50:15;44.75;;;14.30;;
63699;SDS011;49845;47.130;142.766;2023-04-01T04:52:47;30.23;;;9.23;;
63699;SDS011;49845;47.130;142.766;2023-04-01T04:55:17;36.20;;;12.45;;
63699;SDS011;49845;47.130;142.766;2023-04-01T04:57:48;41.42;;;12.93;;
63699;SDS011;49845;47.130;142.766;2023-04-01T05:00:18;42.03;;;13.07;;
63699;SDS011;49845;47.130;142.766;2023-04-01T05:02:49;37.97;;;11.18;;
63699;SDS011;49845;47.130;142.766;2023-04-01T05:05:20;37.88;;;10.82;;
63699;SDS011;49845;47.130;142.766;2023-04-01T05:07:59;47.20;;;12.90;;
63699;SDS011;49845;47.130;142.766;2023-04-01T05:10:32;52.72;;;12.93;;
63699;SDS011;49845;47.130;142.766;2023-04-01T05:13:03;38.70;;;12.30;;
63699;SDS011;49845;47.130;142.766;2023-04-01T05:15:33;32.10;;;9.60;;
63699;SDS011;49845;47.130;142.766;2023-04-01T05:18:05;42.88;;;12.60;;
63699;SDS011;49845;47.130;142.766;2023-04-01T05:20:35;38.40;;;10.13;;
63699;SDS011;49845;47.130;142.766;2023-04-01T05:23:08;35.45;;;11.20;;
63699;SDS011;49845;47.130;142.766;2023-04-01T05:25:39;35.08;;;10.68;;
63699;SDS011;49845;47.130;142.766;2023-04-01T05:28:09;38.30;;;11.60;;
63699;SDS011;49845;47.130;142.766;2023-04-01T05:30:40;43.15;;;11.65;;
63699;SDS011;49845;47.130;142.766;2023-04-01T05:33:11;45.03;;;12.98;;
63699;SDS011;49845;47.130;142.766;2023-04-01T05:35:42;36.75;;;10.27;;
63699;SDS011;49845;47.130;142.766;2023-04-01T05:38:15;43.55;;;10.90;;
63699;SDS011;49845;47.130;142.766;2023-04-01T05:40:45;29.92;;;8.70;;
63699;SDS011;49845;47.130;142.766;2023-04-01T05:43:16;39.13;;;10.52;;
63699;SDS011;49845;47.130;142.766;2023-04-01T05:45:51;34.75;;;10.95;;
63699;SDS011;49845;47.130;142.766;2023-04-01T05:48:22;31.33;;;11.02;;
63699;SDS011;49845;47.130;142.766;2023-04-01T05:50:54;35.42;;;9.77;;
63699;SDS011;49845;47.130;142.766;2023-04-01T05:53:26;29.85;;;9.77;;
63699;SDS011;49845;47.130;142.766;2023-04-01T05:56:01;45.63;;;12.82;;
63699;SDS011;49845;47.130;142.766;2023-04-01T05:58:32;33.75;;;11.02;;
63699;SDS011;49845;47.130;142.766;2023-04-01T06:01:03;35.30;;;10.10;;
63699;SDS011;49845;47.130;142.766;2023-04-01T06:03:39;40.08;;;10.50;;
63699;SDS011;49845;47.130;142.766;2023-04-01T06:06:14;28.15;;;9.30;;
63699;SDS011;49845;47.130;142.766;2023-04-01T06:08:47;39.30;;;11.43;;
63699;SDS011;49845;47.130;142.766;2023-04-01T06:11:26;33.42;;;10.80;;
63699;SDS011;49845;47.130;142.766;2023-04-01T06:14:07;45.88;;;11.52;;
63699;SDS011;49845;47.130;142.766;2023-04-01T06:16:51;43.65;;;10.55;;
63699;SDS011;49845;47.130;142.766;2023-04-01T06:19:33;36.42;;;10.45;;
63699;SDS011;49845;47.130;142.766;2023-04-01T06:22:23;42.95;;;12.20;;
63699;SDS011;49845;47.130;142.766;2023-04-01T06:25:16;50.13;;;12.43;;
63699;SDS011;49845;47.130;142.766;2023-04-01T06:28:02;33.15;;;10.75;;
63699;SDS011;49845;47.130;142.766;2023-04-01T06:30:52;30.95;;;10.73;;
63699;SDS011;49845;47.130;142.766;2023-04-01T06:33:35;37.42;;;10.32;;
63699;SDS011;49845;47.130;142.766;2023-04-01T06:36:20;35.97;;;9.85;;
63699;SDS011;49845;47.130;142.766;2023-04-01T06:39:06;35.83;;;10.75;;
63699;SDS011;49845;47.130;142.766;2023-04-01T06:42:06;49.75;;;13.52;;
63699;SDS011;49845;47.130;142.766;2023-04-01T06:44:50;52.97;;;14.10;;
63699;SDS011;49845;47.130;142.766;2023-04-01T06:47:35;39.70;;;11.65;;
63699;SDS011;49845;47.130;142.766;2023-04-01T06:50:16;38.13;;;12.43;;
63699;SDS011;49845;47.130;142.766;2023-04-01T06:52:56;38.17;;;12.68;;
63699;SDS011;49845;47.130;142.766;2023-04-01T06:55:36;39.38;;;11.52;;
63699;SDS011;49845;47.130;142.766;2023-04-01T06:58:13;52.00;;;12.30;;
63699;SDS011;49845;47.130;142.766;2023-04-01T07:00:51;45.95;;;12.88;;
63699;SDS011;49845;47.130;142.766;2023-04-01T07:03:26;41.53;;;12.20;;
63699;SDS011;49845;47.130;142.766;2023-04-01T07:06:02;53.47;;;15.50;;
63699;SDS011;49845;47.130;142.766;2023-04-01T07:08:35;56.67;;;14.40;;
63699;SDS011;49845;47.130;142.766;2023-04-01T07:11:09;53.65;;;14.85;;
63699;SDS011;49845;47.130;142.766;2023-04-01T07:13:48;55.35;;;12.52;;
63699;SDS011;49845;47.130;142.766;2023-04-01T07:16:24;42.67;;;13.18;;
63699;SDS011;49845;47.130;142.766;2023-04-01T07:19:00;50.83;;;14.18;;
63699;SDS011;49845;47.130;142.766;2023-04-01T07:21:37;32.03;;;10.85;;
63699;SDS011;49845;47.130;142.766;2023-04-01T07:24:15;65.95;;;14.85;;
63699;SDS011;49845;47.130;142.766;2023-04-01T07:26:52;42.83;;;13.05;;
63699;SDS011;49845;47.130;142.766;2023-04-01T07:29:26;41.67;;;13.65;;
63699;SDS011;49845;47.130;142.766;2023-04-01T07:32:02;42.03;;;12.55;;
63699;SDS011;49845;47.130;142.766;2023-04-01T07:37:30;35.50;;;13.50;;
63699;SDS011;49845;47.130;142.766;2023-04-01T07:40:12;40.53;;;14.60;;
63699;SDS011;49845;47.130;142.766;2023-04-01T07:42:57;41.00;;;12.15;;
63699;SDS011;49845;47.130;142.766;2023-04-01T07:45:41;45.17;;;13.38;;
63699;SDS011;49845;47.130;142.766;2023-04-01T07:48:21;61.25;;;15.35;;
63699;SDS011;49845;47.130;142.766;2023-04-01T07:50:56;47.22;;;14.20;;
63699;SDS011;49845;47.130;142.766;2023-04-01T07:53:33;63.03;;;16.60;;
63699;SDS011;49845;47.130;142.766;2023-04-01T07:56:08;48.50;;;13.73;;
63699;SDS011;49845;47.130;142.766;2023-04-01T07:58:47;66.00;;;19.08;;
63699;SDS011;49845;47.130;142.766;2023-04-01T08:01:35;67.28;;;17.00;;
63699;SDS011;49845;47.130;142.766;2023-04-01T08:04:31;46.65;;;14.57;;
63699;SDS011;49845;47.130;142.766;2023-04-01T08:07:15;59.00;;;16.02;;
63699;SDS011;49845;47.130;142.766;2023-04-01T08:09:52;54.10;;;15.13;;
63699;SDS011;49845;47.130;142.766;2023-04-01T08:12:33;58.88;;;16.13;;
63699;SDS011;49845;47.130;142.766;2023-04-01T08:15:21;59.60;;;18.88;;
63699;SDS011;49845;47.130;142.766;2023-04-01T08:18:06;50.08;;;13.77;;
63699;SDS011;49845;47.130;142.766;2023-04-01T08:20:48;69.63;;;17.48;;
63699;SDS011;49845;47.130;142.766;2023-04-01T08:23:24;42.53;;;13.02;;
63699;SDS011;49845;47.130;142.766;2023-04-01T08:26:00;56.47;;;13.27;;
63699;SDS011;49845;47.130;142.766;2023-04-01T08:28:37;45.33;;;13.65;;
63699;SDS011;49845;47.130;142.766;2023-04-01T08:31:12;52.88;;;13.18;;
63699;SDS011;49845;47.130;142.766;2023-04-01T08:33:50;65.03;;;16.20;;
63699;SDS011;49845;47.130;142.766;2023-04-01T08:36:24;66.45;;;18.55;;
63699;SDS011;49845;47.130;142.766;2023-04-01T08:39:02;67.18;;;17.83;;
63699;SDS011;49845;47.130;142.766;2023-04-01T08:41:49;66.03;;;19.90;;
63699;SDS011;49845;47.130;142.766;2023-04-01T08:44:45;48.58;;;14.27;;
63699;SDS011;49845;47.130;142.766;2023-04-01T08:47:42;58.78;;;19.15;;
63699;SDS011;49845;47.130;142.766;2023-04-01T08:53:38;58.28;;;15.55;;
63699;SDS011;49845;47.130;142.766;2023-04-01T08:56:30;74.25;;;18.15;;
63699;SDS011;49845;47.130;142.766;2023-04-01T08:59:21;63.28;;;15.68;;
63699;SDS011;49845;47.130;142.766;2023-04-01T09:02:25;63.17;;;16.77;;
63699;SDS011;49845;47.130;142.766;2023-04-01T09:05:37;68.10;;;18.05;;
63699;SDS011;49845;47.130;142.766;2023-04-01T09:08:25;72.00;;;15.68;;
63699;SDS011;49845;47.130;142.766;2023-04-01T09:11:19;64.80;;;15.70;;
63699;SDS011;49845;47.130;142.766;2023-04-01T09:17:17;50.45;;;13.30;;
63699;SDS011;49845;47.130;142.766;2023-04-01T09:20:18;55.47;;;15.82;;
63699;SDS011;49845;47.130;142.766;2023-04-01T09:23:10;56.83;;;15.60;;
63699;SDS011;49845;47.130;142.766;2023-04-01T09:26:06;59.92;;;15.73;;
63699;SDS011;49845;47.130;142.766;2023-04-01T09:28:54;70.15;;;15.48;;
63699;SDS011;49845;47.130;142.766;2023-04-01T09:31:39;63.85;;;14.73;;
63699;SDS011;49845;47.130;142.766;2023-04-01T09:34:38;54.20;;;15.77;;
63699;SDS011;49845;47.130;142.766;2023-04-01T09:37:27;54.38;;;15.50;;
63699;SDS011;49845;47.130;142.766;2023-04-01T09:40:18;64.70;;;16.02;;
63699;SDS011;49845;47.130;142.766;2023-04-01T09:43:20;54.45;;;15.85;;
63699;SDS011;49845;47.130;142.766;2023-04-01T09:46:14;46.85;;;14.77;;
63699;SDS011;49845;47.130;142.766;2023-04-01T09:52:24;53.92;;;14.90;;
63699;SDS011;49845;47.130;142.766;2023-04-01T09:55:12;54.83;;;15.82;;
63699;SDS011;49845;47.130;142.766;2023-04-01T09:57:59;52.55;;;15.93;;
63699;SDS011;49845;47.130;142.766;2023-04-01T10:04:01;60.00;;;17.35;;
63699;SDS011;49845;47.130;142.766;2023-04-01T10:06:58;61.33;;;16.08;;
63699;SDS011;49845;47.130;142.766;2023-04-01T10:16:03;56.28;;;15.93;;
63699;SDS011;49845;47.130;142.766;2023-04-01T10:19:11;57.15;;;16.02;;
63699;SDS011;49845;47.130;142.766;2023-04-01T10:22:05;39.33;;;12.80;;
63699;SDS011;49845;47.130;142.766;2023-04-01T10:34:35;32.65;;;13.13;;
63699;SDS011;49845;47.130;142.766;2023-04-01T10:37:34;39.22;;;13.07;;
63699;SDS011;49845;47.130;142.766;2023-04-01T10:40:54;29.42;;;10.35;;
63699;SDS011;49845;47.130;142.766;2023-04-01T10:46:49;35.45;;;12.65;;
63699;SDS011;49845;47.130;142.766;2023-04-01T10:50:09;25.35;;;9.90;;
63699;SDS011;49845;47.130;142.766;2023-04-01T10:53:21;36.15;;;13.30;;
63699;SDS011;49845;47.130;142.766;2023-04-01T10:59:14;33.58;;;12.80;;
63699;SDS011;49845;47.130;142.766;2023-04-01T11:05:25;34.13;;;12.70;;
63699;SDS011;49845;47.130;142.766;2023-04-01T11:14:53;28.77;;;12.80;;
63699;SDS011;49845;47.130;142.766;2023-04-01T11:27:38;41.42;;;14.75;;
63699;SDS011;49845;47.130;142.766;2023-04-01T11:30:26;36.90;;;13.40;;
63699;SDS011;49845;47.130;142.766;2023-04-01T11:41:55;23.08;;;10.43;;
63699;SDS011;49845;47.130;142.766;2023-04-01T11:44:39;30.30;;;12.38;;
63699;SDS011;49845;47.130;142.766;2023-04-01T11:47:39;31.88;;;11.40;;
63699;SDS011;49845;47.130;142.766;2023-04-01T11:50:38;27.73;;;12.23;;
63699;SDS011;49845;47.130;142.766;2023-04-01T11:53:28;20.85;;;9.65;;
63699;SDS011;49845;47.130;142.766;2023-04-01T11:56:19;27.85;;;11.32;;
63699;SDS011;49845;47.130;142.766;2023-04-01T11:59:06;27.95;;;12.68;;
63699;SDS011;49845;47.130;142.766;2023-04-01T12:01:58;28.83;;;13.25;;
63699;SDS011;49845;47.130;142.766;2023-04-01T12:04:51;29.77;;;12.02;;
63699;SDS011;49845;47.130;142.766;2023-04-01T12:10:44;35.28;;;13.80;;
63699;SDS011;49845;47.130;142.766;2023-04-01T12:13:28;34.03;;;14.43;;
63699;SDS011;49845;47.130;142.766;2023-04-01T12:16:18;34.85;;;13.75;;
63699;SDS011;49845;47.130;142.766;2023-04-01T12:19:10;32.03;;;13.25;;
63699;SDS011;49845;47.130;142.766;2023-04-01T12:21:50;35.30;;;13.68;;
63699;SDS011;49845;47.130;142.766;2023-04-01T12:24:49;40.30;;;16.50;;
63699;SDS011;49845;47.130;142.766;2023-04-01T12:27:36;34.90;;;13.82;;
63699;SDS011;49845;47.130;142.766;2023-04-01T12:30:26;44.35;;;15.05;;
63699;SDS011;49845;47.130;142.766;2023-04-01T12:33:14;32.03;;;13.40;;
63699;SDS011;49845;47.130;142.766;2023-04-01T12:36:11;36.30;;;13.40;;
63699;SDS011;49845;47.130;142.766;2023-04-01T12:38:51;43.30;;;15.57;;
63699;SDS011;49845;47.130;142.766;2023-04-01T12:41:47;40.33;;;14.95;;
63699;SDS011;49845;47.130;142.766;2023-04-01T12:44:30;47.28;;;15.10;;
63699;SDS011;49845;47.130;142.766;2023-04-01T12:47:30;50.30;;;16.13;;
63699;SDS011;49845;47.130;142.766;2023-04-01T12:50:28;43.75;;;16.63;;
63699;SDS011;49845;47.130;142.766;2023-04-01T12:53:16;41.92;;;15.57;;
63699;SDS011;49845;47.130;142.766;2023-04-01T12:56:02;41.08;;;16.08;;
63699;SDS011;49845;47.130;142.766;2023-04-01T12:58:50;47.25;;;14.05;;
63699;SDS011;49845;47.130;142.766;2023-04-01T13:01:43;25.63;;;12.60;;
63699;SDS011;49845;47.130;142.766;2023-04-01T13:07:46;34.15;;;12.88;;
63699;SDS011;49845;47.130;142.766;2023-04-01T13:11:00;36.22;;;13.73;;
63699;SDS011;49845;47.130;142.766;2023-04-01T13:16:58;31.23;;;11.48;;
63699;SDS011;49845;47.130;142.766;2023-04-01T13:19:38;33.72;;;12.43;;
63699;SDS011;49845;47.130;142.766;2023-04-01T13:22:34;33.75;;;12.70;;
63699;SDS011;49845;47.130;142.766;2023-04-01T13:25:24;33.28;;;11.90;;
63699;SDS011;49845;47.130;142.766;2023-04-01T13:28:09;34.58;;;12.95;;
63699;SDS011;49845;47.130;142.766;2023-04-01T13:30:48;36.70;;;14.00;;
63699;SDS011;49845;47.130;142.766;2023-04-01T13:33:26;29.38;;;12.07;;
63699;SDS011;49845;47.130;142.766;2023-04-01T13:36:08;30.80;;;13.35;;
63699;SDS011;49845;47.130;142.766;2023-04-01T13:38:54;41.42;;;13.98;;
63699;SDS011;49845;47.130;142.766;2023-04-01T13:41:40;31.02;;;12.85;;
63699;SDS011;49845;47.130;142.766;2023-04-01T13:44:32;35.35;;;13.57;;
63699;SDS011;49845;47.130;142.766;2023-04-01T13:53:18;25.13;;;12.38;;
63699;SDS011;49845;47.130;142.766;2023-04-01T13:56:15;25.15;;;12.30;;
63699;SDS011;49845;47.130;142.766;2023-04-01T13:59:21;27.60;;;12.90;;
63699;SDS011;49845;47.130;142.766;2023-04-01T14:05:40;28.25;;;12.25;;
63699;SDS011;49845;47.130;142.766;2023-04-01T14:12:36;26.20;;;11.73;;
63699;SDS011;49845;47.130;142.766;2023-04-01T14:18:25;29.95;;;12.23;;
63699;SDS011;49845;47.130;142.766;2023-04-01T14:21:33;25.38;;;12.18;;
63699;SDS011;49845;47.130;142.766;2023-04-01T14:24:21;29.80;;;11.55;;
63699;SDS011;49845;47.130;142.766;2023-04-01T14:30:29;21.70;;;11.75;;
63699;SDS011;49845;47.130;142.766;2023-04-01T14:33:24;30.73;;;12.13;;
63699;SDS011;49845;47.130;142.766;2023-04-01T14:39:29;29.88;;;11.73;;
63699;SDS011;49845;47.130;142.766;2023-04-01T14:48:51;34.05;;;12.63;;
63699;SDS011;49845;47.130;142.766;2023-04-01T14:52:09;32.58;;;12.80;;
63699;SDS011;49845;47.130;142.766;2023-04-01T14:55:29;31.35;;;13.15;;
63699;SDS011;49845;47.130;142.766;2023-04-01T14:58:31;33.72;;;12.48;;
63699;SDS011;49845;47.130;142.766;2023-04-01T15:01:30;34.92;;;14.27;;
63699;SDS011;49845;47.130;142.766;2023-04-01T15:04:41;27.88;;;12.02;;
63699;SDS011;49845;47.130;142.766;2023-04-01T15:07:49;41.90;;;13.38;;
63699;SDS011;49845;47.130;142.766;2023-04-01T15:15:09;32.15;;;11.52;;
63699;SDS011;49845;47.130;142.766;2023-04-01T15:18:24;24.15;;;11.40;;
63699;SDS011;49845;47.130;142.766;2023-04-01T15:21:37;30.33;;;11.63;;
63699;SDS011;49845;47.130;142.766;2023-04-01T15:24:50;29.13;;;11.77;;
63699;SDS011;49845;47.130;142.766;2023-04-01T15:27:40;21.77;;;10.90;;
63699;SDS011;49845;47.130;142.766;2023-04-01T15:30:34;22.05;;;9.73;;
63699;SDS011;49845;47.130;142.766;2023-04-01T15:33:36;27.15;;;11.43;;
63699;SDS011;49845;47.130;142.766;2023-04-01T15:36:37;29.25;;;10.68;;
63699;SDS011;49845;47.130;142.766;2023-04-01T15:39:45;24.13;;;9.60;;
63699;SDS011;49845;47.130;142.766;2023-04-01T15:42:52;24.02;;;9.77;;
63699;SDS011;49845;47.130;142.766;2023-04-01T15:46:08;16.77;;;8.95;;
63699;SDS011;49845;47.130;142.766;2023-04-01T15:53:01;23.40;;;9.70;;
63699;SDS011;49845;47.130;142.766;2023-04-01T15:56:44;24.17;;;11.02;;
63699;SDS011;49845;47.130;142.766;2023-04-01T16:00:06;20.85;;;9.60;;
63699;SDS011;49845;47.130;142.766;2023-04-01T16:04:05;22.88;;;9.00;;
63699;SDS011;49845;47.130;142.766;2023-04-01T16:11:51;20.48;;;9.95;;
63699;SDS011;49845;47.130;142.766;2023-04-01T16:15:03;22.60;;;9.88;;
63699;SDS011;49845;47.130;142.766;2023-04-01T16:18:02;25.20;;;10.65;;
63699;SDS011;49845;47.130;142.766;2023-04-01T16:21:21;23.15;;;10.02;;
63699;SDS011;49845;47.130;142.766;2023-04-01T16:27:35;24.67;;;9.68;;
63699;SDS011;49845;47.130;142.766;2023-04-01T16:30:35;25.85;;;9.50;;
63699;SDS011;49845;47.130;142.766;2023-04-01T16:33:20;18.73;;;9.50;;
63699;SDS011;49845;47.130;142.766;2023-04-01T16:36:07;24.45;;;9.05;;
63699;SDS011;49845;47.130;142.766;2023-04-01T16:38:46;24.00;;;9.68;;
63699;SDS011;49845;47.130;142.766;2023-04-01T16:41:29;22.42;;;10.13;;
63699;SDS011;49845;47.130;142.766;2023-04-01T16:44:17;19.67;;;9.45;;
63699;SDS011;49845;47.130;142.766;2023-04-01T16:47:19;24.08;;;9.65;;
63699;SDS011;49845;47.130;142.766;2023-04-01T16:50:22;26.13;;;9.30;;
63699;SDS011;49845;47.130;142.766;2023-04-01T16:53:19;21.70;;;9.35;;
63699;SDS011;49845;47.130;142.766;2023-04-01T16:56:24;17.83;;;8.43;;
63699;SDS011;49845;47.130;142.766;2023-04-01T16:59:19;23.10;;;9.40;;
63699;SDS011;49845;47.130;142.766;2023-04-01T17:02:08;20.90;;;9.40;;
63699;SDS011;49845;47.130;142.766;2023-04-01T17:05:04;27.17;;;10.25;;
63699;SDS011;49845;47.130;142.766;2023-04-01T17:08:54;19.83;;;10.30;;
63699;SDS011;49845;47.130;142.766;2023-04-01T17:11:45;20.15;;;9.20;;
63699;SDS011;49845;47.130;142.766;2023-04-01T17:14:42;20.65;;;9.15;;
63699;SDS011;49845;47.130;142.766;2023-04-01T17:17:28;19.88;;;8.82;;
63699;SDS011;49845;47.130;142.766;2023-04-01T17:20:10;23.95;;;8.95;;
63699;SDS011;49845;47.130;142.766;2023-04-01T17:23:13;22.58;;;9.48;;
63699;SDS011;49845;47.130;142.766;2023-04-01T17:28:50;25.90;;;10.88;;
63699;SDS011;49845;47.130;142.766;2023-04-01T17:31:36;26.15;;;11.07;;
63699;SDS011;49845;47.130;142.766;2023-04-01T17:34:40;23.35;;;10.07;;
63699;SDS011;49845;47.130;142.766;2023-04-01T17:37:44;23.25;;;9.90;;
63699;SDS011;49845;47.130;142.766;2023-04-01T17:41:13;23.20;;;9.90;;
63699;SDS011;49845;47.130;142.766;2023-04-01T17:44:11;28.52;;;10.40;;